Time;durP1;ratioP1;P1;durP2;ratioP2;P2;SDS_P1;SDS_P2;PMS_P1;PMS_P2;Temp;Humidity;BMP_temperature;BMP_pressure;BME280_temperature;BME280_humidity;BME280_pressure;Samples;Min_cycle;Max_cycle;Signal;HPM_P1;HPM_P2
2023/07/28 00:04:35;;;;;;;2.85;1.48;;;;;;;16.57;85.90;96948.63;10482427;28;20122;-64
2023/07/28 00:09:56;;;;;;;4.72;1.70;;;;;;;16.61;86.17;96945.97;10496810;28;20494;-64
2023/07/28 00:15:17;;;;;;;4.63;1.95;;;;;;;16.62;86.04;96936.13;10497552;28;20154;-64
2023/07/28 00:20:37;;;;;;;2.30;1.50;;;;;;;16.64;86.38;96927.75;10497890;28;20068;-64
2023/07/28 00:25:58;;;;;;;6.25;1.80;;;;;;;16.67;86.55;96932.06;10482588;28;20136;-64
2023/07/28 00:31:19;;;;;;;4.88;1.95;;;;;;;16.79;86.60;96937.34;10497232;28;20094;-64
2023/07/28 00:36:40;;;;;;;3.90;1.83;;;;;;;16.86;85.74;96930.53;10496294;28;20068;-64
2023/07/28 00:42:01;;;;;;;3.63;1.67;;;;;;;16.88;86.02;96919.31;10497122;28;20068;-64
2023/07/28 00:47:22;;;;;;;3.28;1.40;;;;;;;16.86;86.06;96930.53;10495912;28;20148;-64
2023/07/28 00:52:43;;;;;;;2.60;1.33;;;;;;;16.80;86.43;96928.28;10481696;28;20454;-64
2023/07/28 00:58:03;;;;;;;2.75;1.60;;;;;;;16.79;86.75;96924.00;10481740;28;20124;-64
2023/07/28 01:03:24;;;;;;;2.30;1.50;;;;;;;16.78;86.83;96925.38;10495434;28;20498;-64
2023/07/28 01:08:49;;;;;;;3.95;1.90;;;;;;;16.76;86.57;96919.69;10487067;28;20131;-64
2023/07/28 01:14:09;;;;;;;2.95;1.48;;;;;;;16.78;86.85;96905.63;10489047;28;20071;-64
2023/07/28 01:19:30;;;;;;;4.38;1.98;;;;;;;16.74;86.75;96907.63;10488758;28;20044;-64
2023/07/28 01:25:05;;;;;;;2.45;1.50;;;;;;;16.76;86.92;96913.31;10503810;28;20072;-64
2023/07/28 01:30:27;;;;;;;2.67;1.67;;;;;;;16.82;87.11;96905.78;10502376;28;20114;-64
2023/07/28 01:35:48;;;;;;;3.58;2.00;;;;;;;16.82;87.13;96902.97;10488304;28;20127;-64
2023/07/28 01:41:08;;;;;;;5.97;2.00;;;;;;;16.84;87.03;96900.19;10503246;28;20118;-64
2023/07/28 01:46:29;;;;;;;2.75;1.80;;;;;;;16.81;87.34;96895.88;10501658;28;20465;-64
2023/07/28 01:51:50;;;;;;;3.47;1.67;;;;;;;16.80;87.09;96894.44;10502487;28;20040;-64
2023/07/28 01:57:10;;;;;;;4.25;1.50;;;;;;;16.77;87.32;96892.94;10501454;28;20076;-64
2023/07/28 02:02:31;;;;;;;5.55;2.00;;;;;;;16.79;87.23;96892.28;10501458;28;20452;-64
2023/07/28 02:07:52;;;;;;;3.17;1.58;;;;;;;16.81;87.37;96889.53;10487080;28;20079;-64
2023/07/28 02:13:13;;;;;;;4.85;2.20;;;;;;;16.82;87.41;96877.59;10501927;28;20550;-64
2023/07/28 02:18:33;;;;;;;3.80;1.80;;;;;;;16.87;87.29;96876.31;10486527;28;20075;-64
2023/07/28 02:23:54;;;;;;;4.28;1.83;;;;;;;16.85;87.07;96876.25;10500347;28;20162;-64
2023/07/28 02:29:15;;;;;;;3.25;1.92;;;;;;;16.83;87.22;96867.03;10501254;28;20502;-64
2023/07/28 02:34:36;;;;;;;3.28;1.92;;;;;;;16.85;87.16;96873.44;10500848;28;20064;-65
2023/07/28 02:39:57;;;;;;;3.95;1.95;;;;;;;16.88;86.99;96871.41;10499887;28;20080;-64
2023/07/28 02:45:18;;;;;;;4.60;2.13;;;;;;;16.88;86.94;96866.47;10500396;28;20044;-65
2023/07/28 02:50:44;;;;;;;4.25;1.90;;;;;;;16.86;87.07;96866.44;10499105;28;20597;-64
2023/07/28 02:56:05;;;;;;;2.42;1.73;;;;;;;16.87;86.87;96870.69;10472008;28;20068;-64
2023/07/28 03:01:25;;;;;;;4.28;2.20;;;;;;;16.88;86.88;96877.03;10498624;28;20064;-64
2023/07/28 03:06:47;;;;;;;4.38;1.98;;;;;;;16.85;86.69;96876.25;10498725;28;20174;-65
2023/07/28 03:12:08;;;;;;;3.63;2.10;;;;;;;16.82;86.86;96888.88;10498230;28;20071;-64
2023/07/28 03:17:29;;;;;;;5.25;2.65;;;;;;;16.75;87.17;96886.53;10470342;28;20064;-64
2023/07/28 03:22:50;;;;;;;4.47;2.35;;;;;;;16.74;87.10;96885.81;10469910;28;20072;-64
2023/07/28 03:28:11;;;;;;;3.65;2.20;;;;;;;16.70;87.73;96877.25;10469327;28;20064;-64
2023/07/28 03:33:31;;;;;;;5.53;2.35;;;;;;;16.69;87.72;96872.97;10497701;28;20147;-64
2023/07/28 03:38:52;;;;;;;6.00;2.40;;;;;;;16.64;87.86;96876.31;10483324;28;20071;-64
2023/07/28 03:44:13;;;;;;;5.25;2.17;;;;;;;16.59;88.10;96881.09;10497305;28;20115;-64
2023/07/28 03:49:34;;;;;;;5.22;1.92;;;;;;;16.58;88.41;96885.28;10482957;28;20512;-64
2023/07/28 03:54:54;;;;;;;5.57;2.55;;;;;;;16.58;88.40;96886.00;10469175;28;20529;-64
2023/07/28 04:00:15;;;;;;;5.53;2.55;;;;;;;16.59;88.57;96886.72;10497916;28;20072;-64
2023/07/28 04:05:36;;;;;;;7.32;1.90;;;;;;;16.58;88.86;96874.72;10496417;28;20123;-64
2023/07/28 04:10:57;;;;;;;5.05;2.00;;;;;;;16.64;88.76;96881.94;10482909;28;20128;-64
2023/07/28 04:16:18;;;;;;;5.82;2.00;;;;;;;16.66;88.66;96884.81;10496532;28;20068;-64
2023/07/28 04:21:39;;;;;;;3.08;2.08;;;;;;;16.73;88.43;96881.56;10468597;28;20120;-64
2023/07/28 04:27:02;;;;;;;2.83;2.08;;;;;;;16.74;87.92;96891.44;10496121;28;20119;-64
2023/07/28 04:32:23;;;;;;;4.10;2.15;;;;;;;16.82;87.96;96902.97;10482626;28;20139;-64
2023/07/28 04:37:45;;;;;;;3.92;1.88;;;;;;;16.90;87.94;96902.50;10495902;28;20124;-64
2023/07/28 04:43:12;;;;;;;4.05;1.90;;;;;;;16.98;87.25;96916.06;10489654;28;20052;-65
2023/07/28 04:48:37;;;;;;;3.97;1.90;;;;;;;17.07;87.24;96910.00;10477202;28;20123;-64
2023/07/28 04:54:18;;;;;;;4.32;1.90;;;;;;;17.13;86.99;96913.03;10503745;28;20071;-64
2023/07/28 04:59:38;;;;;;;4.80;1.92;;;;;;;17.05;87.20;96897.97;10489662;28;20166;-64
2023/07/28 05:04:59;;;;;;;2.28;1.67;;;;;;;17.08;87.51;96905.09;10489054;28;20128;-65
2023/07/28 05:10:20;;;;;;;3.15;1.42;;;;;;;17.09;87.28;96910.09;10489395;28;20495;-65
2023/07/28 05:15:41;;;;;;;2.53;1.27;;;;;;;17.12;87.52;96910.88;10489076;28;20469;-65
2023/07/28 05:21:09;;;;;;;3.75;1.40;;;;;;;17.06;87.64;96914.22;10489688;28;20066;-65
2023/07/28 05:26:30;;;;;;;2.55;1.05;;;;;;;17.07;87.98;96924.09;10502627;28;20044;-65
2023/07/28 05:31:51;;;;;;;2.53;1.13;;;;;;;17.13;88.00;96917.94;10502218;28;20064;-64
2023/07/28 05:37:25;;;;;;;2.42;1.10;;;;;;;17.24;88.22;96918.94;10489834;28;20083;-65
2023/07/28 05:42:46;;;;;;;1.73;0.77;;;;;;;17.34;87.72;96931.22;10488036;28;20044;-65
2023/07/28 05:48:06;;;;;;;3.92;1.38;;;;;;;17.60;87.47;96933.34;10487695;28;20060;-65
2023/07/28 05:53:27;;;;;;;1.67;1.00;;;;;;;17.91;86.88;96944.09;10501145;28;20506;-65
2023/07/28 05:58:53;;;;;;;3.65;0.80;;;;;;;18.31;85.97;96952.16;10501143;28;20175;-66
2023/07/28 06:04:14;;;;;;;1.60;0.90;;;;;;;18.72;85.53;96953.13;10501964;28;20131;-65
2023/07/28 06:09:39;;;;;;;2.30;0.80;;;;;;;18.76;84.14;96961.72;10500722;28;20170;-65
2023/07/28 06:15:00;;;;;;;1.80;0.52;;;;;;;18.75;83.65;96957.47;10500659;28;20133;-65
2023/07/28 06:20:21;;;;;;;2.75;0.70;;;;;;;18.80;83.31;96956.16;10500585;28;20150;-65
2023/07/28 06:25:45;;;;;;;2.25;0.68;;;;;;;18.81;83.63;96954.75;10501223;28;20068;-65
2023/07/28 06:31:06;;;;;;;1.63;0.47;;;;;;;18.89;82.15;96952.13;10500294;28;20078;-65
2023/07/28 06:36:27;;;;;;;2.83;0.60;;;;;;;19.06;82.27;96962.41;10485780;28;20440;-65
2023/07/28 06:41:51;;;;;;;1.02;0.43;;;;;;;19.12;81.19;96968.19;10499728;28;20101;-65
2023/07/28 06:47:12;;;;;;;3.13;0.50;;;;;;;19.27;81.34;96971.31;10471432;28;20075;-65
2023/07/28 06:52:34;;;;;;;1.38;0.40;;;;;;;19.35;80.19;96971.50;10500195;28;20063;-65
2023/07/28 06:57:54;;;;;;;1.13;0.38;;;;;;;19.47;80.18;96965.38;10498887;28;20505;-65
2023/07/28 07:03:15;;;;;;;1.85;0.50;;;;;;;19.60;79.40;96973.47;10497693;28;20052;-65
2023/07/28 07:08:36;;;;;;;0.75;0.40;;;;;;;19.76;79.28;96972.34;10498430;28;20482;-65
2023/07/28 07:13:57;;;;;;;2.05;0.20;;;;;;;19.90;78.38;96981.13;10499007;28;20074;-65
2023/07/28 07:19:19;;;;;;;1.75;0.30;;;;;;;19.95;77.91;96982.59;10498964;28;20044;-65
2023/07/28 07:24:40;;;;;;;0.70;0.25;;;;;;;20.10;77.59;96978.66;10497984;28;20037;-66
2023/07/28 07:30:01;;;;;;;1.67;0.22;;;;;;;20.54;76.74;96975.88;10498564;28;20072;-65
2023/07/28 07:35:21;;;;;;;4.10;0.30;;;;;;;21.13;75.35;96981.72;10498536;28;20071;-66
2023/07/28 07:40:42;;;;;;;1.10;0.20;;;;;;;21.73;74.13;96988.91;10498339;28;20068;-65
2023/07/28 07:46:03;;;;;;;0.68;0.20;;;;;;;21.96;71.15;96994.16;10498401;28;20459;-65
2023/07/28 07:51:25;;;;;;;0.52;0.20;;;;;;;22.13;71.08;97005.72;10497184;28;20047;-66
2023/07/28 07:56:46;;;;;;;0.28;0.10;;;;;;;22.03;68.97;97012.00;10496931;28;20127;-66
2023/07/28 08:02:07;;;;;;;0.47;0.10;;;;;;;22.28;68.97;97004.44;10482797;28;20127;-65
2023/07/28 08:07:28;;;;;;;1.33;0.38;;;;;;;22.96;66.23;97002.91;10497496;28;20064;-66
2023/07/28 08:12:49;;;;;;;2.28;0.20;;;;;;;22.77;66.16;97010.56;10497711;28;20451;-66
2023/07/28 08:18:11;;;;;;;2.00;0.30;;;;;;;23.55;65.50;97023.94;10497268;28;20470;-66
2023/07/28 08:23:32;;;;;;;0.45;0.20;;;;;;;24.52;62.95;97017.88;10497394;28;20064;-66
2023/07/28 08:28:54;;;;;;;2.05;0.57;;;;;;;25.28;60.53;97015.69;10497097;28;20036;-66
2023/07/28 08:34:15;;;;;;;0.90;0.27;;;;;;;24.89;57.60;97017.16;10496185;28;20053;-65
2023/07/28 08:39:36;;;;;;;0.38;0.20;;;;;;;25.77;56.28;97012.00;10496880;28;20470;-66
2023/07/28 08:44:57;;;;;;;1.15;0.25;;;;;;;26.21;54.74;97013.94;10495806;28;20448;-66
2023/07/28 08:50:18;;;;;;;5.57;0.30;;;;;;;25.28;54.76;97020.69;10495876;28;20071;-66
2023/07/28 08:55:38;;;;;;;0.45;0.20;;;;;;;24.91;55.69;97023.59;10481618;28;20490;-66
2023/07/28 09:01:02;;;;;;;2.15;0.30;;;;;;;25.59;55.15;97021.34;10496835;28;20048;-66
2023/07/28 09:06:29;;;;;;;1.05;0.20;;;;;;;27.06;51.52;97024.13;10496249;28;20448;-66
2023/07/28 09:11:51;;;;;;;0.98;0.20;;;;;;;26.30;50.13;97023.91;10495451;28;20048;-66
2023/07/28 09:17:13;;;;;;;0.50;0.27;;;;;;;25.83;52.22;97038.44;10481582;28;20558;-66
2023/07/28 09:22:34;;;;;;;;;;;;;;;25.82;51.85;97034.16;10467963;28;20816;-66
2023/07/28 09:27:54;;;;;;;0.75;0.20;;;;;;;27.13;50.36;97034.09;10497737;28;20438;-66
2023/07/28 09:33:34;;;;;;;0.28;0.10;;;;;;;28.80;45.48;97024.13;10503046;28;20508;-66
2023/07/28 09:38:54;;;;;;;0.25;0.10;;;;;;;30.81;42.08;97041.84;10502003;28;20071;-66
2023/07/28 09:44:16;;;;;;;2.80;0.17;;;;;;;31.23;39.26;97013.44;10487813;28;20160;-66
2023/07/28 09:49:38;;;;;;;0.20;0.10;;;;;;;30.83;39.70;97018.72;10502486;28;20474;-66
2023/07/28 09:54:59;;;;;;;0.82;0.17;;;;;;;31.96;38.54;97025.88;10501483;28;20080;-66
2023/07/28 10:00:21;;;;;;;0.20;0.10;;;;;;;30.82;36.99;97014.44;10500875;28;20036;-66
2023/07/28 10:05:41;;;;;;;0.40;0.10;;;;;;;29.86;39.18;97022.28;10500612;28;20136;-66
2023/07/28 10:11:04;;;;;;;0.83;0.20;;;;;;;30.76;38.36;97034.75;10500730;28;20063;-66
2023/07/28 10:16:37;;;;;;;0.25;0.20;;;;;;;29.28;39.67;97021.22;10500486;28;20042;-67
2023/07/28 10:22:10;;;;;;;0.30;0.10;;;;;;;30.23;39.43;97024.41;10500522;28;20119;-66
2023/07/28 10:27:31;;;;;;;0.30;0.10;;;;;;;30.96;37.88;97034.25;10500042;28;20037;-66
2023/07/28 10:32:52;;;;;;;2.15;0.28;;;;;;;32.03;36.38;97029.28;10500962;28;20169;-66
2023/07/28 10:38:34;;;;;;;0.95;0.20;;;;;;;31.17;37.32;97045.25;10485561;28;20515;-66
2023/07/28 10:43:55;;;;;;;2.13;0.20;;;;;;;30.86;37.57;97042.44;10500252;28;20486;-66
2023/07/28 10:49:15;;;;;;;0.57;0.20;;;;;;;31.13;36.96;97046.09;10499991;28;20128;-66
2023/07/28 10:54:36;;;;;;;0.82;0.20;;;;;;;30.91;36.92;97050.22;10484369;28;20064;-66
2023/07/28 11:00:00;;;;;;;1.13;0.20;;;;;;;31.24;36.62;97053.03;10499262;28;20075;-66
2023/07/28 11:05:28;;;;;;;3.15;0.20;;;;;;;31.68;35.95;97046.84;10499446;28;20144;-66
2023/07/28 11:10:49;;;;;;;0.35;0.22;;;;;;;32.21;35.50;97054.03;10499117;28;20068;-66
2023/07/28 11:16:10;;;;;;;1.17;0.30;;;;;;;31.95;35.52;97049.75;10484413;28;20529;-66
2023/07/28 11:21:31;;;;;;;0.40;0.15;;;;;;;31.48;35.75;97048.81;10497845;28;20049;-66
2023/07/28 11:26:53;;;;;;;0.75;0.20;;;;;;;30.54;35.99;97052.53;10470251;28;20106;-66
2023/07/28 11:32:15;;;;;;;0.60;0.20;;;;;;;29.44;36.70;97051.84;10497455;28;20044;-66
2023/07/28 11:37:37;;;;;;;0.88;0.20;;;;;;;28.68;38.30;97058.78;10483685;28;20095;-66
2023/07/28 11:42:57;;;;;;;0.37;0.20;;;;;;;28.02;39.77;97071.84;10497190;28;20063;-66
2023/07/28 11:48:18;;;;;;;1.75;0.20;;;;;;;29.25;40.42;97057.19;10483071;28;20318;-66
2023/07/28 11:53:39;;;;;;;1.00;0.20;;;;;;;30.65;37.78;97054.44;10496852;28;20517;-66
2023/07/28 11:58:59;;;;;;;0.40;0.10;;;;;;;30.65;37.10;97050.84;10482922;28;20099;-66
2023/07/28 12:04:25;;;;;;;0.95;0.10;;;;;;;30.40;37.27;97048.50;10497957;28;20052;-65
2023/07/28 12:09:51;;;;;;;0.68;0.20;;;;;;;29.37;37.68;97059.84;10497618;28;20453;-69
2023/07/28 12:15:27;;;;;;;0.25;0.10;;;;;;;30.28;38.04;97050.94;10497475;28;20049;-66
2023/07/28 12:20:53;;;;;;;0.55;0.20;;;;;;;30.44;37.19;97051.28;10482880;28;20057;-66
2023/07/28 12:26:13;;;;;;;0.55;0.10;;;;;;;30.55;36.51;97045.28;10496352;28;20082;-66
2023/07/28 12:31:36;;;;;;;0.60;0.15;;;;;;;30.38;36.24;97050.69;10497430;28;20066;-66
2023/07/28 12:36:59;;;;;;;0.77;0.20;;;;;;;29.64;37.20;97040.69;10496941;28;20075;-66
2023/07/28 12:42:20;;;;;;;1.77;0.10;;;;;;;30.07;37.78;97042.03;10496053;28;20048;-66
2023/07/28 12:48:01;;;;;;;0.20;0.10;;;;;;;30.78;36.44;97046.22;10496954;28;20049;-66
2023/07/28 12:53:22;;;;;;;0.10;0.10;;;;;;;30.70;35.66;97055.06;10495650;28;20048;-66
2023/07/28 12:58:43;;;;;;;0.60;0.20;;;;;;;30.69;35.46;97048.59;10496731;28;20064;-66
2023/07/28 13:04:07;;;;;;;0.20;0.10;;;;;;;30.64;36.03;97041.50;10501071;28;20131;-66
2023/07/28 13:09:28;;;;;;;3.20;0.30;;;;;;;30.87;36.15;97038.78;10504218;28;20047;-66
2023/07/28 13:14:52;;;;;;;2.53;0.20;;;;;;;30.35;35.26;97064.44;10503125;28;20122;-66
2023/07/28 13:20:16;;;;;;;3.35;0.20;;;;;;;29.83;36.41;97054.72;10503679;28;20044;-66
2023/07/28 13:25:38;;;;;;;0.75;0.10;;;;;;;30.03;36.64;97056.47;10503726;28;20045;-66
2023/07/28 13:31:04;;;;;;;1.67;0.13;;;;;;;30.43;36.18;97049.88;10503325;28;20049;-66
2023/07/28 13:36:25;;;;;;;1.48;0.20;;;;;;;30.29;36.07;97058.09;10488741;28;20470;-66
2023/07/28 13:41:46;;;;;;;0.95;0.20;;;;;;;29.62;36.29;97055.09;10503019;28;20055;-66
2023/07/28 13:47:06;;;;;;;1.60;0.20;;;;;;;29.46;36.85;97052.50;10487877;28;20048;-66
2023/07/28 13:52:27;;;;;;;0.20;0.10;;;;;;;28.87;38.03;97067.84;10501548;28;20426;-66
2023/07/28 13:57:48;;;;;;;0.10;0.10;;;;;;;28.65;38.62;97068.88;10502591;28;20072;-66
2023/07/28 14:03:09;;;;;;;0.35;0.20;;;;;;;28.45;39.10;97069.88;10486941;28;20057;-66
2023/07/28 14:08:30;;;;;;;0.93;0.10;;;;;;;28.66;39.23;97053.09;10500643;28;20059;-66
2023/07/28 14:13:51;;;;;;;1.67;0.20;;;;;;;29.32;38.26;97059.19;10500371;28;20478;-66
2023/07/28 14:19:12;;;;;;;0.38;0.20;;;;;;;29.42;37.99;97060.47;10500132;28;20406;-66
2023/07/28 14:24:33;;;;;;;0.77;0.20;;;;;;;29.26;37.66;97061.50;10486331;28;20040;-67
2023/07/28 14:29:54;;;;;;;1.75;0.10;;;;;;;28.55;38.08;97066.16;10500957;28;20051;-66
2023/07/28 14:35:14;;;;;;;1.80;0.10;;;;;;;28.26;38.55;97073.69;10500677;28;20045;-66
2023/07/28 14:40:36;;;;;;;0.20;0.10;;;;;;;28.43;38.85;97072.78;10500412;28;20040;-66
2023/07/28 14:45:57;;;;;;;0.60;0.20;;;;;;;28.80;38.62;97072.97;10500221;28;20394;-65
2023/07/28 14:51:18;;;;;;;0.40;0.20;;;;;;;28.69;38.38;97060.22;10499124;28;20088;-66
2023/07/28 14:56:39;;;;;;;1.30;0.10;;;;;;;28.49;38.39;97069.81;10499724;28;20073;-66
2023/07/28 15:02:00;;;;;;;0.20;0.10;;;;;;;28.41;38.26;97063.50;10499617;28;20049;-66
2023/07/28 15:07:22;;;;;;;0.37;0.10;;;;;;;27.98;38.63;97071.91;10499896;28;20440;-66
2023/07/28 15:12:43;;;;;;;;;;;;;;;27.80;39.02;97079.28;10498589;28;20040;-66
2023/07/28 15:18:05;;;;;;;2.95;0.20;;;;;;;27.75;39.00;97082.91;10499413;28;20354;-66
2023/07/28 15:23:26;;;;;;;1.27;0.10;;;;;;;27.59;39.06;97086.63;10498865;28;20044;-66
2023/07/28 15:28:47;;;;;;;0.20;0.10;;;;;;;27.54;39.45;97077.38;10497524;28;20486;-65
2023/07/28 15:34:08;;;;;;;2.60;0.10;;;;;;;27.36;39.55;97077.56;10498497;28;20106;-66
2023/07/28 15:39:30;;;;;;;0.63;0.10;;;;;;;27.48;39.49;97088.88;10497684;28;20520;-66
2023/07/28 15:44:52;;;;;;;0.63;0.17;;;;;;;27.13;39.78;97084.94;10497466;28;20090;-66
2023/07/28 15:50:13;;;;;;;1.02;0.20;;;;;;;26.92;40.54;97079.31;10497732;28;20459;-66
2023/07/28 15:55:35;;;;;;;0.40;0.20;;;;;;;26.94;40.52;97079.31;10496837;28;20044;-66
2023/07/28 16:00:57;;;;;;;0.40;0.10;;;;;;;26.90;40.38;97073.59;10496541;28;20044;-66
2023/07/28 16:06:18;;;;;;;0.30;0.20;;;;;;;26.77;40.62;97078.72;10497385;28;20391;-66
2023/07/28 16:11:39;;;;;;;0.40;0.20;;;;;;;26.73;40.96;97072.28;10468754;28;20045;-66
2023/07/28 16:16:59;;;;;;;0.28;0.10;;;;;;;26.57;41.27;97078.13;10497652;28;20041;-66
2023/07/28 16:22:23;;;;;;;0.38;0.20;;;;;;;26.31;41.75;97084.69;10497476;28;20429;-65
2023/07/28 16:27:44;;;;;;;0.32;0.20;;;;;;;26.50;42.21;97072.44;10496089;28;20044;-65
2023/07/28 16:33:05;;;;;;;0.50;0.30;;;;;;;26.59;41.67;97089.56;10497095;28;20064;-66
2023/07/28 16:38:25;;;;;;;0.60;0.35;;;;;;;26.34;41.97;97091.81;10501754;28;20056;-65
2023/07/28 16:43:46;;;;;;;1.30;0.30;;;;;;;26.08;42.05;97101.25;10504504;28;20120;-65
2023/07/28 16:49:07;;;;;;;1.30;0.20;;;;;;;25.89;43.04;97095.59;10504970;28;20090;-65
2023/07/28 16:54:28;;;;;;;0.50;0.30;;;;;;;25.80;43.17;97099.91;10504981;28;20040;-65
2023/07/28 16:59:49;;;;;;;0.50;0.20;;;;;;;25.83;43.31;97109.88;10505209;28;20544;-65
2023/07/28 17:05:10;;;;;;;1.13;0.20;;;;;;;25.86;43.51;97108.44;10504126;28;20375;-66
2023/07/28 17:10:31;;;;;;;1.25;0.30;;;;;;;25.91;43.39;97117.72;10475469;28;20532;-65
2023/07/28 17:15:52;;;;;;;0.90;0.13;;;;;;;25.69;43.75;97115.63;10503093;28;20040;-66
2023/07/28 17:21:13;;;;;;;0.40;0.20;;;;;;;25.53;43.97;97112.78;10504023;28;20126;-65
2023/07/28 17:26:33;;;;;;;0.40;0.20;;;;;;;25.34;43.61;97121.38;10503576;28;20040;-65
2023/07/28 17:31:54;;;;;;;0.50;0.30;;;;;;;25.19;44.18;97125.69;10488612;28;20450;-65
2023/07/28 17:37:15;;;;;;;1.75;0.20;;;;;;;24.98;44.31;97138.47;10502591;28;20052;-65
2023/07/28 17:42:36;;;;;;;0.35;0.20;;;;;;;24.72;45.00;97137.00;10502976;28;20048;-65
2023/07/28 17:47:57;;;;;;;0.20;0.10;;;;;;;24.55;45.27;97152.66;10501609;28;20486;-65
2023/07/28 17:53:17;;;;;;;1.60;0.30;;;;;;;24.47;45.80;97144.06;10502787;28;21143;-65
2023/07/28 17:58:38;;;;;;;0.20;0.10;;;;;;;24.41;45.39;97132.63;10502579;28;20076;-65
2023/07/28 18:03:59;;;;;;;2.10;0.30;;;;;;;24.30;45.22;97137.56;10502103;28;20068;-66
2023/07/28 18:09:20;;;;;;;0.88;0.20;;;;;;;24.24;45.22;97143.25;10502069;28;20076;-66
2023/07/28 18:14:41;;;;;;;0.52;0.32;;;;;;;24.15;45.61;97142.50;10502459;28;20044;-65
2023/07/28 18:20:03;;;;;;;0.60;0.20;;;;;;;24.02;45.52;97151.69;10501726;28;20047;-65
2023/07/28 18:25:24;;;;;;;0.65;0.30;;;;;;;23.80;46.15;97161.53;10501554;28;20521;-65
2023/07/28 18:30:45;;;;;;;2.70;0.30;;;;;;;23.58;46.43;97156.38;10501169;28;20064;-65
2023/07/28 18:36:05;;;;;;;0.28;0.15;;;;;;;23.33;46.86;97154.75;10500354;28;20116;-65
2023/07/28 18:41:26;;;;;;;0.50;0.28;;;;;;;23.10;47.20;97159.56;10500904;28;20119;-65
2023/07/28 18:46:47;;;;;;;0.68;0.30;;;;;;;22.96;47.79;97150.88;10500794;28;20079;-65
2023/07/28 18:52:07;;;;;;;0.50;0.20;;;;;;;22.82;48.33;97154.28;10500172;28;20179;-65
2023/07/28 18:57:28;;;;;;;1.05;0.25;;;;;;;22.76;48.79;97152.09;10500288;28;20040;-65
2023/07/28 19:02:54;;;;;;;0.93;0.20;;;;;;;22.70;48.90;97154.16;10499970;28;20569;-65
2023/07/28 19:08:16;;;;;;;0.52;0.30;;;;;;;22.59;49.46;97159.03;10499914;28;20497;-65
2023/07/28 19:13:37;;;;;;;0.63;0.25;;;;;;;22.44;49.84;97163.84;10499900;28;20124;-65
2023/07/28 19:18:58;;;;;;;0.47;0.22;;;;;;;22.27;50.34;97179.97;10499411;28;20128;-65
2023/07/28 19:24:18;;;;;;;0.90;0.45;;;;;;;22.13;50.95;97187.59;10498353;28;20155;-65
2023/07/28 19:29:41;;;;;;;1.13;0.30;;;;;;;22.00;51.72;97187.44;10499384;28;20124;-65
2023/07/28 19:35:03;;;;;;;0.80;0.22;;;;;;;21.90;52.14;97201.47;10498991;28;20047;-65
2023/07/28 19:40:24;;;;;;;1.35;0.30;;;;;;;21.82;52.64;97207.06;10498560;28;20084;-65
2023/07/28 19:45:45;;;;;;;1.17;0.30;;;;;;;21.72;52.93;97206.91;10498465;28;20483;-65
2023/07/28 19:51:08;;;;;;;1.17;0.30;;;;;;;21.63;53.12;97208.88;10497433;28;20115;-65
2023/07/28 19:56:29;;;;;;;2.05;0.40;;;;;;;21.53;54.17;97217.25;10497278;28;20112;-65
2023/07/28 20:01:49;;;;;;;1.02;0.30;;;;;;;21.47;54.75;97222.09;10497765;28;20049;-65
2023/07/28 20:07:10;;;;;;;1.10;0.38;;;;;;;21.38;55.42;97219.13;10496880;28;20075;-65
2023/07/28 20:12:32;;;;;;;0.60;0.40;;;;;;;21.31;55.89;97223.25;10496348;28;20454;-65
2023/07/28 20:17:53;;;;;;;0.73;0.40;;;;;;;21.22;56.41;97221.66;10497897;28;20067;-65
2023/07/28 20:23:17;;;;;;;1.05;0.40;;;;;;;21.13;57.16;97228.59;10497568;28;20427;-65
2023/07/28 20:28:38;;;;;;;0.98;0.40;;;;;;;21.08;57.51;97224.97;10482899;28;20040;-65
2023/07/28 20:33:59;;;;;;;2.30;0.70;;;;;;;21.01;58.11;97236.88;10497234;28;20041;-65
2023/07/28 20:39:21;;;;;;;10.52;3.20;;;;;;;20.93;58.47;97240.28;10497180;28;20151;-65
2023/07/28 20:44:43;;;;;;;7.23;3.10;;;;;;;20.89;58.85;97248.00;10496014;28;20044;-65
2023/07/28 20:50:07;;;;;;;6.18;1.52;;;;;;;20.79;59.71;97243.56;10496894;28;20068;-65
2023/07/28 20:55:28;;;;;;;3.63;0.90;;;;;;;20.75;60.63;97248.44;10496020;28;20124;-65
2023/07/28 21:00:48;;;;;;;1.70;0.40;;;;;;;20.70;60.80;97246.94;10481856;28;20166;-65
2023/07/28 21:06:09;;;;;;;2.15;0.60;;;;;;;20.67;61.14;97246.19;10495501;28;20174;-65
2023/07/28 21:11:30;;;;;;;1.33;0.50;;;;;;;20.63;61.41;97253.88;10495405;28;20068;-65
2023/07/28 21:16:51;;;;;;;1.45;0.43;;;;;;;20.54;61.81;97248.03;10496502;28;20045;-65
2023/07/28 21:22:11;;;;;;;4.35;0.60;;;;;;;20.49;62.25;97268.47;10481705;28;20053;-65
2023/07/28 21:27:32;;;;;;;2.50;0.50;;;;;;;20.44;62.65;97272.63;10503699;28;20513;-65
2023/07/28 21:33:00;;;;;;;0.75;0.43;;;;;;;20.40;63.32;97272.50;10502333;28;20064;-65
2023/07/28 21:38:21;;;;;;;1.25;0.60;;;;;;;20.37;63.26;97276.72;10502482;28;20394;-65
2023/07/28 21:43:42;;;;;;;0.90;0.40;;;;;;;20.28;63.78;97278.63;10503120;28;20131;-65
2023/07/28 21:49:02;;;;;;;0.68;0.50;;;;;;;20.24;64.50;97301.19;10503010;28;20036;-65
2023/07/28 21:54:23;;;;;;;0.70;0.30;;;;;;;20.15;64.95;97288.97;10503003;28;20119;-65
2023/07/28 21:59:44;;;;;;;1.20;0.40;;;;;;;20.11;65.46;97288.88;10501838;28;20166;-65
2023/07/28 22:05:06;;;;;;;0.93;0.45;;;;;;;20.07;65.72;97293.72;10501229;28;20084;-65
2023/07/28 22:10:27;;;;;;;1.02;0.45;;;;;;;20.05;66.10;97291.56;10501201;28;20116;-65
2023/07/28 22:15:47;;;;;;;1.60;0.50;;;;;;;20.02;66.40;97292.91;10500963;28;20120;-65
2023/07/28 22:21:08;;;;;;;1.00;0.50;;;;;;;20.00;66.99;97295.72;10500860;28;20092;-65
2023/07/28 22:26:29;;;;;;;1.10;0.30;;;;;;;19.99;66.97;97285.78;10501432;28;20123;-65
2023/07/28 22:31:50;;;;;;;0.70;0.40;;;;;;;19.97;66.85;97282.88;10501738;28;20072;-65
2023/07/28 22:37:11;;;;;;;0.90;0.40;;;;;;;19.92;67.65;97284.19;10500699;28;20457;-65
2023/07/28 22:42:31;;;;;;;2.00;0.30;;;;;;;19.95;67.52;97294.16;10500851;28;20521;-65
2023/07/28 22:47:53;;;;;;;1.10;0.50;;;;;;;19.93;67.76;97289.19;10500713;28;20052;-66
2023/07/28 22:53:14;;;;;;;1.67;0.47;;;;;;;19.87;67.44;97285.47;10499438;28;20431;-65
2023/07/28 22:58:34;;;;;;;1.00;0.50;;;;;;;19.80;67.93;97289.56;10500384;28;20068;-64
2023/07/28 23:03:55;;;;;;;0.90;0.40;;;;;;;19.72;68.81;97304.97;10499596;28;20079;-65
2023/07/28 23:09:16;;;;;;;1.70;0.50;;;;;;;19.70;68.92;97302.09;10499798;28;20479;-66
2023/07/28 23:14:37;;;;;;;1.35;0.50;;;;;;;19.69;68.98;97303.47;10498422;28;20123;-65
2023/07/28 23:19:58;;;;;;;0.60;0.40;;;;;;;19.69;69.42;97297.81;10498430;28;20089;-65
2023/07/28 23:25:19;;;;;;;0.73;0.40;;;;;;;19.69;69.54;97299.94;10499281;28;20044;-65
2023/07/28 23:30:39;;;;;;;1.30;0.50;;;;;;;19.70;69.38;97298.53;10498831;28;20115;-65
2023/07/28 23:36:00;;;;;;;1.70;0.60;;;;;;;19.69;69.54;97299.94;10498681;28;20159;-65
2023/07/28 23:41:21;;;;;;;2.42;0.70;;;;;;;19.64;69.35;97304.03;10498503;28;20090;-65
2023/07/28 23:46:42;;;;;;;1.40;0.45;;;;;;;19.55;69.62;97293.88;10496906;28;20074;-65
2023/07/28 23:52:03;;;;;;;1.08;0.65;;;;;;;19.54;70.36;97284.66;10483103;28;20120;-64
2023/07/28 23:57:23;;;;;;;2.00;0.50;;;;;;;19.58;70.04;97287.59;10498217;28;20505;-64
